createdAt,value
2023-04-15T00:00:10.794Z,81.73
2023-04-15T00:03:21.004Z,81.28
2023-04-15T00:06:23.660Z,81.40
2023-04-15T00:09:35.875Z,81.49
2023-04-15T00:12:38.281Z,81.08
2023-04-15T00:15:41.003Z,81.47
2023-04-15T00:18:43.282Z,81.80
2023-04-15T00:21:45.936Z,81.16
2023-04-15T00:24:50.794Z,81.56
2023-04-15T00:27:53.075Z,81.10
2023-04-15T00:30:55.456Z,81.12
2023-04-15T00:33:58.573Z,80.95
2023-04-15T00:37:06.292Z,80.97
2023-04-15T00:40:16.353Z,81.33
2023-04-15T00:43:18.858Z,80.40
2023-04-15T00:46:22.755Z,80.89
2023-04-15T00:49:25.591Z,81.18
2023-04-15T00:52:27.834Z,81.19
2023-04-15T00:55:30.264Z,81.66
2023-04-15T00:58:37.423Z,81.09
2023-04-15T01:01:40.909Z,81.31
2023-04-15T01:04:43.569Z,81.55
2023-04-15T01:07:49.048Z,81.80
2023-04-15T01:11:03.700Z,81.68
2023-04-15T01:14:10.044Z,81.79
2023-04-15T01:17:13.391Z,81.68
2023-04-15T01:20:18.224Z,81.86
2023-04-15T01:23:23.015Z,81.42
2023-04-15T01:26:27.671Z,82.00
2023-04-15T01:29:32.618Z,81.53
2023-04-15T01:32:35.020Z,80.70
2023-04-15T01:35:39.493Z,80.70
2023-04-15T01:38:41.793Z,80.67
2023-04-15T01:41:44.756Z,80.82
2023-04-15T01:44:49.335Z,81.75
2023-04-15T01:47:54.184Z,81.18
2023-04-15T01:51:04.384Z,80.45
2023-04-15T01:54:07.658Z,80.75
2023-04-15T01:57:12.798Z,81.44
2023-04-15T02:00:18.321Z,81.08
2023-04-15T02:03:20.839Z,80.98
2023-04-15T02:06:25.509Z,81.09
2023-04-15T02:09:27.986Z,81.61
2023-04-15T02:12:30.635Z,81.54
2023-04-15T02:15:33.398Z,81.03
2023-04-15T02:18:35.632Z,81.45
2023-04-15T02:21:37.980Z,81.56
2023-04-15T02:24:40.341Z,81.63
2023-04-15T02:27:43.958Z,81.49
2023-04-15T02:30:52.787Z,80.79
2023-04-15T02:33:58.046Z,80.83
2023-04-15T02:37:01.222Z,81.25
2023-04-15T02:40:06.078Z,81.21
2023-04-15T02:43:10.784Z,81.12
2023-04-15T02:46:15.404Z,81.18
2023-04-15T02:49:17.899Z,81.26
2023-04-15T02:52:21.280Z,81.38
2023-04-15T02:55:23.784Z,81.59
2023-04-15T02:58:26.766Z,81.62
2023-04-15T03:01:29.116Z,81.95
2023-04-15T03:04:34.455Z,82.08
2023-04-15T03:07:36.790Z,82.29
2023-04-15T03:10:39.124Z,83.09
2023-04-15T03:13:43.215Z,82.60
2023-04-15T03:16:59.656Z,82.82
2023-04-15T03:20:06.031Z,82.37
2023-04-15T03:23:08.520Z,82.25
2023-04-15T03:26:23.641Z,82.50
2023-04-15T03:29:28.464Z,82.52
2023-04-15T03:32:34.870Z,83.23
2023-04-15T03:35:40.049Z,82.54
2023-04-15T03:38:42.835Z,83.00
2023-04-15T03:41:47.388Z,82.27
2023-04-15T03:44:52.303Z,82.30
2023-04-15T03:47:54.596Z,82.91
2023-04-15T03:50:59.199Z,82.24
2023-04-15T03:54:06.409Z,82.47
2023-04-15T03:57:08.706Z,83.07
2023-04-15T04:00:11.131Z,82.48
2023-04-15T04:03:16.341Z,82.33
2023-04-15T04:06:21.015Z,81.95
2023-04-15T04:09:23.287Z,82.47
2023-04-15T04:12:25.742Z,82.05
2023-04-15T04:15:28.160Z,82.36
2023-04-15T04:18:33.808Z,82.39
2023-04-15T04:21:39.704Z,82.94
2023-04-15T04:24:41.871Z,82.77
2023-04-15T04:27:48.778Z,82.70
2023-04-15T04:30:53.257Z,82.65
2023-04-15T04:33:55.542Z,82.60
2023-04-15T04:36:57.791Z,82.80
2023-04-15T04:40:00.060Z,82.06
2023-04-15T04:43:02.517Z,82.70
2023-04-15T04:46:04.843Z,82.41
2023-04-15T04:49:07.105Z,82.01
2023-04-15T04:52:11.771Z,81.66
2023-04-15T04:55:16.790Z,81.89
2023-04-15T04:58:19.078Z,81.42
2023-04-15T05:01:23.723Z,79.43
2023-04-15T05:04:26.510Z,78.45
2023-04-15T05:07:31.224Z,77.71
2023-04-15T05:10:33.655Z,77.75
2023-04-15T05:13:38.680Z,77.77
2023-04-15T05:16:40.944Z,77.74
2023-04-15T05:19:48.250Z,77.29
2023-04-15T05:22:50.736Z,77.19
2023-04-15T05:25:55.695Z,76.35
2023-04-15T05:28:58.015Z,76.75
2023-04-15T05:32:06.175Z,77.04
2023-04-15T05:35:08.625Z,76.77
2023-04-15T05:38:13.143Z,77.30
2023-04-15T05:41:19.887Z,77.00
2023-04-15T05:44:24.828Z,76.88
2023-04-15T05:47:29.490Z,77.56
2023-04-15T05:50:33.861Z,77.18
2023-04-15T05:53:41.734Z,77.84
2023-04-15T05:56:44.138Z,78.14
2023-04-15T05:59:52.375Z,77.00
2023-04-15T06:02:56.189Z,76.84
2023-04-15T06:06:05.792Z,76.88
2023-04-15T06:09:11.230Z,76.69
2023-04-15T06:12:13.921Z,77.14
2023-04-15T06:15:17.140Z,77.65
2023-04-15T06:18:22.267Z,75.82
2023-04-15T06:21:24.744Z,75.21
2023-04-15T06:24:29.333Z,73.66
2023-04-15T06:27:32.080Z,73.64
2023-04-15T06:30:35.979Z,73.51
2023-04-15T06:33:38.416Z,69.63
2023-04-15T06:36:41.755Z,67.96
2023-04-15T06:39:46.387Z,68.36
2023-04-15T06:42:48.700Z,66.80
2023-04-15T06:45:51.754Z,69.09
2023-04-15T06:48:54.026Z,68.62
2023-04-15T06:51:56.472Z,67.81
2023-04-15T06:55:00.954Z,65.29
2023-04-15T06:58:03.512Z,63.98
2023-04-15T07:01:06.052Z,62.56
2023-04-15T07:04:08.734Z,61.98
2023-04-15T07:07:13.424Z,61.89
2023-04-15T07:10:18.105Z,62.03
2023-04-15T07:13:22.829Z,61.42
2023-04-15T07:16:26.611Z,58.63
2023-04-15T07:19:30.113Z,55.74
2023-04-15T07:22:32.963Z,54.78
2023-04-15T07:25:35.484Z,52.92
2023-04-15T07:28:37.845Z,53.13
2023-04-15T07:31:40.856Z,51.57
2023-04-15T07:34:43.198Z,52.19
2023-04-15T07:37:48.611Z,50.59
2023-04-15T07:40:50.904Z,51.40
2023-04-15T07:43:53.141Z,50.42
2023-04-15T07:46:58.199Z,48.52
2023-04-15T07:50:00.621Z,48.18
2023-04-15T07:53:05.729Z,49.99
2023-04-15T07:56:08.232Z,50.38
2023-04-15T07:59:10.570Z,52.18
2023-04-15T08:02:12.964Z,53.09
2023-04-15T08:05:17.791Z,52.09
2023-04-15T08:08:22.848Z,52.36
2023-04-15T08:11:27.785Z,50.77
2023-04-15T08:14:32.292Z,51.05
2023-04-15T08:17:35.246Z,52.06
2023-04-15T08:20:39.704Z,52.40
2023-04-15T08:23:42.743Z,52.80
2023-04-15T08:26:47.978Z,53.28
2023-04-15T08:29:50.266Z,52.67
2023-04-15T08:32:57.916Z,50.90
2023-04-15T08:36:02.455Z,49.72
2023-04-15T08:39:05.059Z,49.57
2023-04-15T08:42:17.423Z,50.04
2023-04-15T08:45:24.579Z,53.12
2023-04-15T08:48:32.767Z,54.75
2023-04-15T08:51:35.541Z,54.66
2023-04-15T08:54:38.829Z,48.52
2023-04-15T08:57:43.846Z,48.46
2023-04-15T09:00:48.838Z,49.18
2023-04-15T09:03:57.267Z,50.96
2023-04-15T09:07:00.685Z,49.50
2023-04-15T09:10:07.451Z,48.16
2023-04-15T09:13:12.398Z,49.64
2023-04-15T09:16:14.745Z,49.98
2023-04-15T09:19:26.450Z,50.85
2023-04-15T09:22:32.574Z,51.75
2023-04-15T09:25:38.046Z,52.10
2023-04-15T09:28:46.157Z,50.16
2023-04-15T09:31:51.553Z,48.76
2023-04-15T09:34:53.759Z,48.39
2023-04-15T09:38:07.922Z,49.42
2023-04-15T09:41:19.742Z,50.89
2023-04-15T09:44:28.005Z,48.91
2023-04-15T09:47:32.326Z,48.83
2023-04-15T09:50:41.479Z,48.77
2023-04-15T09:53:43.796Z,47.54
2023-04-15T09:56:46.339Z,49.08
2023-04-15T09:59:48.637Z,48.55
2023-04-15T10:02:52.035Z,49.58
2023-04-15T10:05:56.718Z,49.20
2023-04-15T10:08:59.524Z,49.57
2023-04-15T10:12:04.261Z,52.34
2023-04-15T10:15:09.980Z,52.62
2023-04-15T10:18:20.144Z,53.40
2023-04-15T10:21:23.654Z,54.50
2023-04-15T10:24:26.308Z,55.17
2023-04-15T10:27:29.217Z,56.41
2023-04-15T10:30:33.044Z,56.38
2023-04-15T10:33:36.350Z,55.09
2023-04-15T10:36:41.606Z,54.92
2023-04-15T10:39:44.454Z,55.30
2023-04-15T10:42:49.700Z,55.60
2023-04-15T10:45:56.271Z,54.78
2023-04-15T10:49:06.721Z,56.46
2023-04-15T10:52:09.000Z,55.68
2023-04-15T10:55:11.212Z,55.53
2023-04-15T10:58:15.280Z,56.38
2023-04-15T11:01:23.387Z,57.91
2023-04-15T11:04:57.677Z,61.66
2023-04-15T11:08:00.147Z,61.66
2023-04-15T11:11:02.471Z,62.97
2023-04-15T11:14:07.638Z,62.64
2023-04-15T11:17:10.232Z,59.69
2023-04-15T11:20:16.049Z,62.31
2023-04-15T11:23:20.002Z,61.05
2023-04-15T11:26:27.203Z,60.93
2023-04-15T11:29:35.045Z,58.76
2023-04-15T11:32:37.403Z,58.73
2023-04-15T11:35:45.014Z,58.28
2023-04-15T11:38:47.655Z,58.28
2023-04-15T11:41:50.005Z,56.69
2023-04-15T11:45:07.564Z,57.66
2023-04-15T11:48:18.344Z,56.14
2023-04-15T11:51:22.682Z,55.61
2023-04-15T11:54:25.306Z,55.35
2023-04-15T11:57:32.108Z,57.04
2023-04-15T12:00:35.789Z,57.88
2023-04-15T12:03:42.511Z,57.30
2023-04-15T12:06:49.567Z,57.62
2023-04-15T12:09:59.916Z,57.72
2023-04-15T12:13:10.002Z,57.25
2023-04-15T12:16:12.350Z,57.89
2023-04-15T12:19:22.800Z,57.35
2023-04-15T12:22:27.272Z,57.38
2023-04-15T12:25:36.039Z,56.03
2023-04-15T12:28:41.956Z,55.76
2023-04-15T12:31:52.177Z,56.48
2023-04-15T12:34:58.241Z,56.81
2023-04-15T12:38:00.508Z,58.09
2023-04-15T12:41:02.784Z,57.47
2023-04-15T12:44:10.070Z,57.47
2023-04-15T12:47:15.835Z,56.98
2023-04-15T12:50:18.685Z,56.11
2023-04-15T12:53:21.010Z,56.03
2023-04-15T12:56:28.345Z,56.11
2023-04-15T12:59:30.716Z,56.12
2023-04-15T13:02:33.374Z,57.10
2023-04-15T13:05:39.858Z,56.91
2023-04-15T13:08:57.499Z,56.45
2023-04-15T13:12:01.331Z,56.47
2023-04-15T13:15:07.483Z,55.93
2023-04-15T13:18:12.073Z,57.19
2023-04-15T13:21:17.224Z,56.86
2023-04-15T13:24:19.559Z,57.12
2023-04-15T13:27:22.368Z,57.61
2023-04-15T13:30:27.764Z,57.96
2023-04-15T13:33:30.464Z,57.08
2023-04-15T13:36:35.352Z,55.15
2023-04-15T13:39:37.654Z,55.66
2023-04-15T13:42:40.015Z,56.52
2023-04-15T13:45:42.356Z,56.28
2023-04-15T13:48:44.651Z,58.21
2023-04-15T13:51:47.033Z,57.24
2023-04-15T13:55:08.612Z,56.69
2023-04-15T13:58:14.735Z,58.26
2023-04-15T14:01:19.341Z,57.22
2023-04-15T14:04:22.002Z,57.04
2023-04-15T14:07:26.869Z,56.36
2023-04-15T14:10:29.153Z,57.51
2023-04-15T14:13:31.466Z,56.99
2023-04-15T14:16:34.481Z,58.36
2023-04-15T14:19:39.916Z,57.28
2023-04-15T14:22:43.085Z,57.54
2023-04-15T14:25:47.934Z,58.43
2023-04-15T14:28:51.008Z,59.97
2023-04-15T14:32:07.295Z,58.98
2023-04-15T14:35:16.590Z,60.47
2023-04-15T14:38:18.981Z,60.99
2023-04-15T14:41:22.463Z,60.54
2023-04-15T14:44:27.018Z,60.41
2023-04-15T14:47:30.323Z,60.62
2023-04-15T14:50:37.556Z,59.75
2023-04-15T14:53:42.251Z,59.41
2023-04-15T14:56:48.342Z,58.40
2023-04-15T14:59:56.072Z,58.60
2023-04-15T15:02:59.017Z,57.92
2023-04-15T15:06:01.424Z,57.80
2023-04-15T15:09:03.938Z,57.90
2023-04-15T15:12:13.866Z,57.27
2023-04-15T15:15:28.512Z,56.77
2023-04-15T15:18:33.605Z,55.82
2023-04-15T15:21:36.060Z,54.71
2023-04-15T15:24:41.169Z,55.73
2023-04-15T15:27:46.083Z,56.96
2023-04-15T15:30:54.926Z,58.26
2023-04-15T15:33:59.721Z,58.59
2023-04-15T15:37:02.126Z,58.61
2023-04-15T15:40:08.287Z,59.61
2023-04-15T15:43:13.078Z,59.65
2023-04-15T15:46:19.897Z,60.14
2023-04-15T15:49:26.462Z,60.66
2023-04-15T15:52:28.971Z,61.18
2023-04-15T15:55:33.817Z,60.81
2023-04-15T15:58:38.491Z,61.01
2023-04-15T16:01:41.593Z,61.44
2023-04-15T16:04:44.152Z,61.93
2023-04-15T16:07:46.572Z,61.83
2023-04-15T16:10:48.946Z,62.84
2023-04-15T16:13:54.031Z,64.00
2023-04-15T16:16:56.370Z,65.76
2023-04-15T16:20:04.280Z,66.33
2023-04-15T16:23:13.179Z,66.11
2023-04-15T16:26:15.504Z,66.12
2023-04-15T16:29:23.009Z,65.78
2023-04-15T16:32:25.671Z,66.59
2023-04-15T16:35:33.359Z,65.88
2023-04-15T16:38:36.855Z,66.15
2023-04-15T16:41:39.193Z,66.77
2023-04-15T16:44:43.787Z,67.03
2023-04-15T16:47:48.459Z,69.17
2023-04-15T16:50:53.196Z,70.20
2023-04-15T16:53:58.050Z,68.52
2023-04-15T16:57:02.082Z,70.00
2023-04-15T17:00:08.831Z,69.48
2023-04-15T17:03:11.308Z,69.69
2023-04-15T17:06:15.600Z,70.61
2023-04-15T17:09:20.024Z,70.39
2023-04-15T17:12:27.254Z,70.54
2023-04-15T17:15:29.814Z,71.58
2023-04-15T17:18:32.175Z,71.91
2023-04-15T17:21:34.609Z,71.91
2023-04-15T17:24:42.069Z,72.33
2023-04-15T17:27:44.331Z,72.16
2023-04-15T17:30:51.363Z,72.44
2023-04-15T17:34:00.475Z,72.94
2023-04-15T17:37:13.941Z,71.37
2023-04-15T17:40:18.467Z,73.56
2023-04-15T17:43:25.770Z,72.70
2023-04-15T17:46:28.102Z,72.84
2023-04-15T17:49:31.175Z,73.12
2023-04-15T17:52:33.893Z,73.46
2023-04-15T17:55:41.152Z,72.88
2023-04-15T17:58:48.147Z,72.87
2023-04-15T18:01:50.730Z,74.12
2023-04-15T18:04:53.238Z,74.15
2023-04-15T18:07:57.797Z,73.80
2023-04-15T18:11:00.099Z,74.22
2023-04-15T18:14:04.238Z,73.68
2023-04-15T18:17:09.148Z,74.86
2023-04-15T18:20:15.575Z,74.09
2023-04-15T18:23:20.174Z,74.65
2023-04-15T18:26:22.656Z,75.05
2023-04-15T18:29:25.549Z,75.16
2023-04-15T18:32:31.808Z,75.00
2023-04-15T18:35:35.211Z,74.92
2023-04-15T18:38:39.779Z,75.51
2023-04-15T18:41:42.078Z,76.00
2023-04-15T18:44:49.107Z,75.77
2023-04-15T18:47:56.927Z,76.29
2023-04-15T18:50:59.459Z,76.04
2023-04-15T18:54:06.615Z,75.57
2023-04-15T18:57:08.897Z,76.72
2023-04-15T19:00:12.074Z,76.65
2023-04-15T19:03:14.750Z,76.29
2023-04-15T19:06:22.851Z,76.57
2023-04-15T19:09:26.282Z,75.94
2023-04-15T19:12:29.767Z,76.57
2023-04-15T19:15:34.469Z,77.62
2023-04-15T19:18:41.990Z,77.78
2023-04-15T19:21:46.684Z,76.70
2023-04-15T19:24:48.962Z,77.67
2023-04-15T19:27:52.242Z,76.88
2023-04-15T19:30:54.883Z,78.13
2023-04-15T19:33:59.941Z,77.44
2023-04-15T19:37:02.361Z,77.62
2023-04-15T19:40:07.442Z,78.33
2023-04-15T19:43:12.692Z,77.83
2023-04-15T19:46:17.475Z,77.90
2023-04-15T19:49:19.977Z,77.14
2023-04-15T19:52:22.431Z,77.95
2023-04-15T19:55:26.504Z,77.20
2023-04-15T19:58:28.879Z,77.14
2023-04-15T20:01:34.001Z,77.89
2023-04-15T20:04:36.384Z,76.84
2023-04-15T20:07:42.598Z,76.32
2023-04-15T20:10:49.746Z,77.25
2023-04-15T20:13:52.076Z,75.93
2023-04-15T20:16:54.382Z,76.74
2023-04-15T20:19:56.661Z,75.90
2023-04-15T20:22:58.904Z,75.92
2023-04-15T20:26:05.593Z,76.06
2023-04-15T20:29:10.404Z,74.97
2023-04-15T20:32:12.915Z,75.48
2023-04-15T20:35:15.424Z,75.36
2023-04-15T20:38:17.687Z,75.40
2023-04-15T20:41:21.617Z,75.30
2023-04-15T20:44:23.899Z,75.41
2023-04-15T20:47:26.414Z,76.19
2023-04-15T20:50:28.831Z,75.89
2023-04-15T20:53:31.150Z,76.47
2023-04-15T20:56:35.817Z,76.26
2023-04-15T20:59:45.096Z,76.55
2023-04-15T21:02:49.857Z,76.29
2023-04-15T21:05:52.236Z,76.63
2023-04-15T21:08:54.484Z,76.54
2023-04-15T21:12:02.179Z,76.98
2023-04-15T21:15:05.110Z,76.61
2023-04-15T21:18:07.376Z,77.24
2023-04-15T21:21:09.623Z,76.83
2023-04-15T21:24:11.949Z,76.77
2023-04-15T21:27:14.378Z,77.78
2023-04-15T21:30:19.187Z,76.96
2023-04-15T21:33:24.096Z,77.40
2023-04-15T21:36:28.659Z,77.28
2023-04-15T21:39:31.424Z,77.45
2023-04-15T21:42:38.578Z,77.76
2023-04-15T21:46:21.006Z,78.01
2023-04-15T21:49:09.083Z,78.23
2023-04-15T21:52:11.474Z,77.85
2023-04-15T21:55:13.698Z,77.99
2023-04-15T21:58:18.143Z,78.28
2023-04-15T22:01:22.726Z,78.57
2023-04-15T22:04:25.262Z,78.69
2023-04-15T22:07:30.420Z,79.08
2023-04-15T22:10:34.897Z,79.28
2023-04-15T22:13:37.176Z,79.07
2023-04-15T22:16:39.480Z,79.31
2023-04-15T22:19:41.937Z,78.92
2023-04-15T22:22:44.820Z,79.43
2023-04-15T22:25:47.463Z,79.13
2023-04-15T22:28:49.851Z,79.07
2023-04-15T22:31:52.686Z,78.67
2023-04-15T22:34:57.524Z,79.23
2023-04-15T22:38:02.643Z,79.42
2023-04-15T22:41:04.998Z,78.68
2023-04-15T22:44:09.844Z,79.35
2023-04-15T22:47:12.095Z,78.86
2023-04-15T22:50:16.949Z,79.96
2023-04-15T22:53:21.466Z,79.87
2023-04-15T22:56:24.962Z,79.07
2023-04-15T22:59:27.220Z,79.60
2023-04-15T23:02:29.582Z,79.27
2023-04-15T23:05:32.225Z,80.09
2023-04-15T23:08:37.194Z,79.82
2023-04-15T23:11:39.459Z,79.74
2023-04-15T23:14:41.852Z,79.67
2023-04-15T23:17:44.210Z,80.37
2023-04-15T23:20:51.357Z,80.20
2023-04-15T23:23:58.404Z,80.00
2023-04-15T23:27:02.855Z,80.48
2023-04-15T23:30:06.074Z,79.84
2023-04-15T23:33:08.380Z,80.50
2023-04-15T23:36:12.891Z,80.48
2023-04-15T23:39:15.137Z,80.66
2023-04-15T23:42:19.670Z,79.92
2023-04-15T23:45:26.477Z,79.66
2023-04-15T23:48:30.112Z,79.68
2023-04-15T23:51:34.673Z,80.07
2023-04-15T23:54:36.992Z,79.87
2023-04-15T23:57:43.604Z,80.20
